createdAt,value
2023-02-04T00:00:21.338Z,99864.84
2023-02-04T00:02:49.920Z,99872.72
2023-02-04T00:05:20.041Z,99874.06
2023-02-04T00:07:48.612Z,99874.13
2023-02-04T00:10:17.162Z,99857.13
2023-02-04T00:12:45.529Z,99873.44
2023-02-04T00:15:15.270Z,99874.72
2023-02-04T00:17:43.614Z,99873.19
2023-02-04T00:20:12.764Z,99886.81
2023-02-04T00:22:41.465Z,99882.88
2023-02-04T00:25:09.879Z,99887.47
2023-02-04T00:27:38.635Z,99862.44
2023-02-04T00:30:08.399Z,99865.50
2023-02-04T00:32:38.125Z,99869.84
2023-02-04T00:35:07.429Z,99862.41
2023-02-04T00:37:36.235Z,99853.16
2023-02-04T00:40:06.588Z,99862.47
2023-02-04T00:42:34.905Z,99868.56
2023-02-04T00:45:03.208Z,99860.56
2023-02-04T00:47:31.593Z,99867.22
2023-02-04T00:50:01.371Z,99870.09
2023-02-04T00:52:29.726Z,99876.47
2023-02-04T00:54:58.112Z,99880.44
2023-02-04T00:57:28.544Z,99887.97
2023-02-04T00:59:56.934Z,99886.13
2023-02-04T01:02:25.284Z,99895.56
2023-02-04T01:04:53.680Z,99888.06
2023-02-04T01:07:25.602Z,99899.09
2023-02-04T01:09:55.162Z,99895.81
2023-02-04T01:12:26.031Z,99886.84
2023-02-04T01:14:54.574Z,99885.13
2023-02-04T01:17:23.018Z,99882.44
2023-02-04T01:19:51.721Z,99857.66
2023-02-04T01:22:20.184Z,99859.56
2023-02-04T01:24:50.687Z,99849.66
2023-02-04T01:27:37.599Z,99864.00
2023-02-04T01:30:07.029Z,99843.19
2023-02-04T01:32:35.663Z,99861.31
2023-02-04T01:35:04.134Z,99867.50
2023-02-04T01:37:32.570Z,99869.16
2023-02-04T01:40:02.210Z,99872.53
2023-02-04T01:42:30.654Z,99867.00
2023-02-04T01:44:59.133Z,99877.09
2023-02-04T01:47:27.621Z,99875.41
2023-02-04T01:49:56.996Z,99891.78
2023-02-04T01:52:25.873Z,99889.59
2023-02-04T01:54:54.766Z,99867.13
2023-02-04T01:57:26.144Z,99877.03
2023-02-04T01:59:56.586Z,99883.25
2023-02-04T02:02:43.472Z,99873.53
2023-02-04T02:05:13.987Z,99882.44
2023-02-04T02:07:42.588Z,99875.09
2023-02-04T02:10:13.697Z,99906.84
2023-02-04T02:12:44.339Z,99880.47
2023-02-04T02:15:14.258Z,99891.03
2023-02-04T02:17:43.266Z,99896.91
2023-02-04T02:20:14.364Z,99903.47
2023-02-04T02:22:50.743Z,99898.78
2023-02-04T02:25:20.432Z,99899.97
2023-02-04T02:27:49.021Z,99907.16
2023-02-04T02:30:19.821Z,99919.97
2023-02-04T02:32:51.917Z,99923.63
2023-02-04T02:35:22.194Z,99934.06
2023-02-04T02:37:51.161Z,99934.56
2023-02-04T02:40:21.193Z,99933.72
2023-02-04T02:42:52.548Z,99928.66
2023-02-04T02:45:27.038Z,99913.72
2023-02-04T02:47:58.361Z,99906.16
2023-02-04T02:50:29.538Z,99906.69
2023-02-04T02:52:59.688Z,99914.22
2023-02-04T02:55:30.027Z,99905.53
2023-02-04T02:57:59.973Z,99920.97
2023-02-04T03:00:31.785Z,99919.97
2023-02-04T03:03:05.038Z,99936.59
2023-02-04T03:05:40.916Z,99943.81
2023-02-04T03:08:12.140Z,99942.44
2023-02-04T03:10:42.119Z,99956.69
2023-02-04T03:13:11.446Z,99962.91
2023-02-04T03:15:40.253Z,99971.66
2023-02-04T03:18:09.439Z,99974.66
2023-02-04T03:20:39.449Z,99976.03
2023-02-04T03:23:07.896Z,99996.50
2023-02-04T03:25:36.637Z,100007.38
2023-02-04T03:28:06.919Z,100017.34
2023-02-04T03:30:35.312Z,100013.28
2023-02-04T03:33:06.278Z,100020.97
2023-02-04T03:35:35.389Z,100023.00
2023-02-04T03:38:03.772Z,100028.69
2023-02-04T03:40:32.339Z,100025.16
2023-02-04T03:43:00.915Z,100028.72
2023-02-04T03:45:40.662Z,100034.28
2023-02-04T03:48:12.220Z,100041.97
2023-02-04T03:50:40.561Z,100054.59
2023-02-04T03:53:11.276Z,100044.00
2023-02-04T03:55:39.532Z,100041.84
2023-02-04T03:58:07.925Z,100049.25
2023-02-04T04:00:37.605Z,100049.91
2023-02-04T04:03:08.088Z,100047.91
2023-02-04T04:05:36.562Z,100042.84
2023-02-04T04:08:05.013Z,100050.41
2023-02-04T04:10:33.715Z,100050.75
2023-02-04T04:13:02.159Z,100053.59
2023-02-04T04:15:30.757Z,100055.22
2023-02-04T04:18:00.670Z,100056.97
2023-02-04T04:20:29.192Z,100063.19
2023-02-04T04:22:57.691Z,100058.69
2023-02-04T04:25:26.116Z,100052.63
2023-02-04T04:27:54.539Z,100047.06
2023-02-04T04:30:23.142Z,100064.38
2023-02-04T04:32:51.551Z,100066.69
2023-02-04T04:35:21.224Z,100060.97
2023-02-04T04:37:49.520Z,100060.16
2023-02-04T04:40:17.984Z,100062.84
2023-02-04T04:42:46.329Z,100056.91
2023-02-04T04:45:15.274Z,100060.09
2023-02-04T04:47:43.554Z,100064.59
2023-02-04T04:50:12.600Z,100072.03
2023-02-04T04:52:42.221Z,100070.81
2023-02-04T04:55:10.993Z,100069.03
2023-02-04T04:57:39.350Z,100079.72
2023-02-04T05:00:09.943Z,100072.88
2023-02-04T05:02:38.324Z,100069.66
2023-02-04T05:05:07.359Z,100077.28
2023-02-04T05:07:35.733Z,100079.59
2023-02-04T05:10:06.132Z,100058.88
2023-02-04T05:12:34.493Z,100080.44
2023-02-04T05:15:02.794Z,100081.78
2023-02-04T05:17:31.771Z,100085.31
2023-02-04T05:20:00.219Z,100093.75
2023-02-04T05:22:28.521Z,100096.25
2023-02-04T05:24:56.996Z,100101.47
2023-02-04T05:27:26.788Z,100104.72
2023-02-04T05:29:55.101Z,100101.47
2023-02-04T05:32:23.480Z,100098.25
2023-02-04T05:34:51.754Z,100105.00
2023-02-04T05:37:21.050Z,100090.34
2023-02-04T05:39:49.371Z,100086.47
2023-02-04T05:42:17.700Z,100093.41
2023-02-04T05:44:47.406Z,100101.25
2023-02-04T05:47:18.742Z,100099.09
2023-02-04T05:49:47.133Z,100090.22
2023-02-04T05:52:15.452Z,100097.28
2023-02-04T05:54:43.744Z,100096.88
2023-02-04T05:57:12.032Z,100093.63
2023-02-04T05:59:40.428Z,100112.22
2023-02-04T06:02:10.167Z,100117.25
2023-02-04T06:04:38.575Z,100121.78
2023-02-04T06:07:09.538Z,100119.63
2023-02-04T06:09:37.900Z,100137.22
2023-02-04T06:12:06.591Z,100131.31
2023-02-04T06:14:35.263Z,100136.97
2023-02-04T06:17:03.643Z,100142.03
2023-02-04T06:19:33.382Z,100141.94
2023-02-04T06:22:01.723Z,100155.09
2023-02-04T06:24:30.170Z,100153.72
2023-02-04T06:26:58.494Z,100131.91
2023-02-04T06:29:26.875Z,100148.00
2023-02-04T06:31:55.440Z,100148.47
2023-02-04T06:34:26.194Z,100158.09
2023-02-04T06:36:55.875Z,100157.06
2023-02-04T06:39:24.302Z,100161.13
2023-02-04T06:41:52.544Z,100163.41
2023-02-04T06:44:20.935Z,100165.41
2023-02-04T06:46:49.163Z,100177.78
2023-02-04T06:49:19.811Z,100166.66
2023-02-04T06:51:48.447Z,100171.94
2023-02-04T06:54:18.403Z,100175.31
2023-02-04T06:56:47.085Z,100179.94
2023-02-04T06:59:15.333Z,100177.72
2023-02-04T07:01:43.651Z,100181.41
2023-02-04T07:04:11.927Z,100174.34
2023-02-04T07:06:40.271Z,100188.75
2023-02-04T07:09:08.563Z,100172.03
2023-02-04T07:11:38.216Z,100204.56
2023-02-04T07:14:06.662Z,100194.63
2023-02-04T07:16:35.075Z,100203.72
2023-02-04T07:19:03.522Z,100177.31
2023-02-04T07:21:31.982Z,100218.28
2023-02-04T07:24:00.530Z,100213.22
2023-02-04T07:26:28.845Z,100219.75
2023-02-04T07:28:58.527Z,100212.44
2023-02-04T07:31:26.908Z,100224.47
2023-02-04T07:33:55.311Z,100214.97
2023-02-04T07:36:24.002Z,100213.59
2023-02-04T07:38:52.449Z,100223.72
2023-02-04T07:41:21.822Z,100222.69
2023-02-04T07:43:50.328Z,100226.72
2023-02-04T07:46:20.049Z,100229.41
2023-02-04T07:48:48.439Z,100224.88
2023-02-04T07:51:16.725Z,100235.16
2023-02-04T07:53:45.227Z,100232.00
2023-02-04T07:56:13.948Z,100243.78
2023-02-04T07:58:42.758Z,100251.06
2023-02-04T08:01:11.100Z,100248.25
2023-02-04T08:03:42.682Z,100254.84
2023-02-04T08:06:11.173Z,100244.84
2023-02-04T08:08:39.691Z,100257.38
2023-02-04T08:11:08.054Z,100248.63
2023-02-04T08:13:36.421Z,100245.16
2023-02-04T08:16:05.591Z,100240.84
2023-02-04T08:18:34.070Z,100249.44
2023-02-04T08:21:04.798Z,100256.38
2023-02-04T08:23:34.040Z,100266.25
2023-02-04T08:26:02.581Z,100266.03
2023-02-04T08:28:30.900Z,100265.34
2023-02-04T08:30:59.344Z,100271.44
2023-02-04T08:33:27.726Z,100268.75
2023-02-04T08:35:56.041Z,100260.72
2023-02-04T08:38:25.814Z,100260.31
2023-02-04T08:40:54.468Z,100257.91
2023-02-04T08:43:22.795Z,100265.47
2023-02-04T08:45:51.146Z,100276.31
2023-02-04T08:48:19.504Z,100273.94
2023-02-04T08:50:50.301Z,100273.38
2023-02-04T08:53:18.742Z,100285.75
2023-02-04T08:55:48.431Z,100296.34
2023-02-04T08:58:16.771Z,100299.66
2023-02-04T09:00:45.311Z,100294.88
2023-02-04T09:03:13.713Z,100283.97
2023-02-04T09:05:44.443Z,100306.13
2023-02-04T09:08:15.742Z,100302.28
2023-02-04T09:10:44.141Z,100250.75
2023-02-04T09:13:14.368Z,100286.25
2023-02-04T09:15:42.671Z,100288.41
2023-02-04T09:18:16.411Z,100263.69
2023-02-04T09:20:45.015Z,100273.97
2023-02-04T09:23:13.938Z,100261.28
2023-02-04T09:25:43.840Z,100264.50
2023-02-04T09:28:16.976Z,100257.81
2023-02-04T09:30:47.717Z,100258.81
2023-02-04T09:33:17.530Z,100260.34
2023-02-04T09:35:46.362Z,100267.16
2023-02-04T09:38:14.982Z,100274.50
2023-02-04T09:40:46.237Z,100245.69
2023-02-04T09:43:21.142Z,100271.28
2023-02-04T09:45:50.722Z,100274.34
2023-02-04T09:48:19.591Z,100279.75
2023-02-04T09:50:48.130Z,100286.56
2023-02-04T09:53:21.230Z,100274.16
2023-02-04T09:55:51.492Z,100271.28
2023-02-04T09:58:23.139Z,100280.38
2023-02-04T10:00:59.861Z,100279.09
2023-02-04T10:03:28.682Z,100273.75
2023-02-04T10:05:57.006Z,100278.75
2023-02-04T10:08:29.788Z,100285.94
2023-02-04T10:10:58.359Z,100290.94
2023-02-04T10:13:34.463Z,100293.53
2023-02-04T10:16:04.920Z,100294.59
2023-02-04T10:18:36.026Z,100286.06
2023-02-04T10:21:16.002Z,100287.41
2023-02-04T10:23:48.074Z,100282.38
2023-02-04T10:26:17.123Z,100285.91
2023-02-04T10:28:47.005Z,100280.59
2023-02-04T10:31:34.316Z,100284.72
2023-02-04T10:34:08.542Z,100296.22
2023-02-04T10:36:37.209Z,100298.66
2023-02-04T10:39:08.441Z,100280.53
2023-02-04T10:41:38.772Z,100280.88
2023-02-04T10:44:13.914Z,100278.34
2023-02-04T10:46:42.542Z,100267.84
2023-02-04T10:49:22.301Z,100282.94
2023-02-04T10:51:52.687Z,100281.16
2023-02-04T10:54:32.160Z,100291.22
2023-02-04T10:57:03.889Z,100288.72
2023-02-04T10:59:34.876Z,100289.09
2023-02-04T11:02:15.127Z,100289.63
2023-02-04T11:04:43.522Z,100292.31
2023-02-04T11:07:13.905Z,100291.78
2023-02-04T11:09:42.778Z,100270.63
2023-02-04T11:12:22.236Z,100278.38
2023-02-04T11:14:59.672Z,100280.72
2023-02-04T11:17:33.569Z,100297.19
2023-02-04T11:20:15.013Z,100297.22
2023-02-04T11:22:49.508Z,100291.78
2023-02-04T11:25:35.877Z,100284.25
2023-02-04T11:28:15.488Z,100293.22
2023-02-04T11:30:45.431Z,100297.22
2023-02-04T11:33:26.941Z,100275.28
2023-02-04T11:36:09.641Z,100291.53
2023-02-04T11:38:40.818Z,100290.66
2023-02-04T11:41:19.426Z,100288.28
2023-02-04T11:43:51.247Z,100290.81
2023-02-04T11:46:21.503Z,100295.72
2023-02-04T11:48:53.786Z,100295.56
2023-02-04T11:51:27.098Z,100289.28
2023-02-04T11:53:55.759Z,100294.50
2023-02-04T11:56:24.805Z,100287.16
2023-02-04T11:58:56.726Z,100298.53
2023-02-04T12:01:32.148Z,100295.38
2023-02-04T12:04:04.199Z,100299.63
2023-02-04T12:06:37.154Z,100295.50
2023-02-04T12:09:07.010Z,100300.88
2023-02-04T12:11:35.911Z,100308.13
2023-02-04T12:14:19.119Z,100304.13
2023-02-04T12:16:51.556Z,100295.91
2023-02-04T12:19:20.249Z,100279.09
2023-02-04T12:21:51.935Z,100294.84
2023-02-04T12:24:20.355Z,100295.38
2023-02-04T12:26:48.667Z,100306.19
2023-02-04T12:29:16.921Z,100308.47
2023-02-04T12:31:45.407Z,100307.16
2023-02-04T12:34:17.246Z,100309.47
2023-02-04T12:36:47.649Z,100307.28
2023-02-04T12:39:16.029Z,100298.06
2023-02-04T12:41:44.968Z,100309.50
2023-02-04T12:44:13.304Z,100301.31
2023-02-04T12:46:41.890Z,100300.84
2023-02-04T12:49:10.555Z,100289.94
2023-02-04T12:51:43.425Z,100293.63
2023-02-04T12:54:11.878Z,100300.47
2023-02-04T12:56:40.220Z,100296.22
2023-02-04T12:59:08.949Z,100299.25
2023-02-04T13:01:37.309Z,100291.72
2023-02-04T13:04:06.093Z,100297.38
2023-02-04T13:06:37.668Z,100287.84
2023-02-04T13:09:07.294Z,100310.00
2023-02-04T13:11:35.672Z,100310.16
2023-02-04T13:14:06.056Z,100307.59
2023-02-04T13:16:34.432Z,100312.56
2023-02-04T13:19:02.774Z,100304.78
2023-02-04T13:21:31.255Z,100311.75
2023-02-04T13:24:00.063Z,100310.72
2023-02-04T13:26:29.738Z,100316.38
2023-02-04T13:28:58.089Z,100305.13
2023-02-04T13:31:26.359Z,100310.81
2023-02-04T13:33:54.783Z,100294.38
2023-02-04T13:36:23.110Z,100312.25
2023-02-04T13:38:51.385Z,100319.41
2023-02-04T13:41:19.944Z,100324.06
2023-02-04T13:43:49.597Z,100315.13
2023-02-04T13:46:18.030Z,100324.53
2023-02-04T13:48:46.346Z,100328.22
2023-02-04T13:51:14.826Z,100316.31
2023-02-04T13:53:43.115Z,100327.38
2023-02-04T13:56:11.422Z,100309.69
2023-02-04T13:58:43.613Z,100332.75
2023-02-04T14:01:13.762Z,100334.91
2023-02-04T14:03:42.791Z,100328.91
2023-02-04T14:06:11.318Z,100327.50
2023-02-04T14:08:40.195Z,100326.66
2023-02-04T14:11:08.678Z,100324.53
2023-02-04T14:13:37.038Z,100327.00
2023-02-04T14:16:09.138Z,100330.66
2023-02-04T14:18:38.986Z,100329.91
2023-02-04T14:21:07.437Z,100334.72
2023-02-04T14:23:35.750Z,100333.41
2023-02-04T14:26:04.114Z,100333.66
2023-02-04T14:28:32.521Z,100328.72
2023-02-04T14:31:01.750Z,100331.06
2023-02-04T14:33:30.194Z,100338.84
2023-02-04T14:35:59.956Z,100339.94
2023-02-04T14:38:30.932Z,100338.84
2023-02-04T14:40:59.521Z,100335.47
2023-02-04T14:43:28.318Z,100336.97
2023-02-04T14:45:58.803Z,100358.63
2023-02-04T14:48:27.183Z,100350.84
2023-02-04T14:50:55.478Z,100347.31
2023-02-04T14:53:25.146Z,100350.16
2023-02-04T14:55:53.505Z,100348.03
2023-02-04T14:58:21.888Z,100353.25
2023-02-04T15:00:50.537Z,100343.09
2023-02-04T15:03:18.915Z,100357.41
2023-02-04T15:05:47.199Z,100355.06
2023-02-04T15:08:15.733Z,100361.97
2023-02-04T15:10:45.407Z,100363.31
2023-02-04T15:13:13.922Z,100361.16
2023-02-04T15:15:42.340Z,100361.66
2023-02-04T15:18:10.653Z,100362.00
2023-02-04T15:20:38.986Z,100368.75
2023-02-04T15:23:07.302Z,100369.25
2023-02-04T15:25:36.295Z,100358.31
2023-02-04T15:28:06.309Z,100364.00
2023-02-04T15:30:35.102Z,100367.53
2023-02-04T15:33:05.693Z,100366.41
2023-02-04T15:35:34.045Z,100372.59
2023-02-04T15:38:02.967Z,100361.63
2023-02-04T15:40:31.812Z,100373.94
2023-02-04T15:43:00.709Z,100384.28
2023-02-04T15:45:30.501Z,100381.38
2023-02-04T15:47:58.838Z,100387.56
2023-02-04T15:50:27.321Z,100385.97
2023-02-04T15:52:55.605Z,100390.44
2023-02-04T15:55:23.993Z,100383.09
2023-02-04T15:57:52.836Z,100385.25
2023-02-04T16:00:21.517Z,100372.59
2023-02-04T16:02:51.261Z,100374.44
2023-02-04T16:05:19.770Z,100379.97
2023-02-04T16:07:49.931Z,100381.34
2023-02-04T16:10:18.772Z,100382.66
2023-02-04T16:12:47.512Z,100398.59
2023-02-04T16:15:16.369Z,100402.53
2023-02-04T16:17:44.916Z,100374.81
2023-02-04T16:20:15.084Z,100401.13
2023-02-04T16:22:43.498Z,100399.66
2023-02-04T16:25:12.083Z,100405.44
2023-02-04T16:27:43.092Z,100413.06
2023-02-04T16:30:14.550Z,100415.44
2023-02-04T16:32:43.011Z,100429.16
2023-02-04T16:35:11.474Z,100432.84
2023-02-04T16:37:41.430Z,100429.75
2023-02-04T16:40:13.413Z,100434.56
2023-02-04T16:42:42.050Z,100431.09
2023-02-04T16:45:11.030Z,100429.78
2023-02-04T16:47:39.366Z,100430.97
2023-02-04T16:50:08.468Z,100432.66
2023-02-04T16:52:36.970Z,100434.34
2023-02-04T16:55:07.330Z,100430.06
2023-02-04T16:57:35.724Z,100426.75
2023-02-04T17:00:04.640Z,100431.66
2023-02-04T17:02:37.083Z,100430.28
2023-02-04T17:05:08.217Z,100431.84
2023-02-04T17:07:36.621Z,100434.84
2023-02-04T17:10:07.131Z,100436.69
2023-02-04T17:12:35.699Z,100440.91
2023-02-04T17:15:04.352Z,100452.09
2023-02-04T17:17:32.638Z,100444.78
2023-02-04T17:20:01.186Z,100452.13
2023-02-04T17:22:31.833Z,100449.19
2023-02-04T17:25:00.144Z,100458.03
2023-02-04T17:27:29.915Z,100454.41
2023-02-04T17:29:58.213Z,100460.44
2023-02-04T17:32:26.970Z,100454.81
2023-02-04T17:34:56.625Z,100449.88
2023-02-04T17:37:24.936Z,100454.13
2023-02-04T17:39:53.357Z,100459.31
2023-02-04T17:42:21.712Z,100456.75
2023-02-04T17:44:51.558Z,100460.72
2023-02-04T17:47:22.178Z,100452.38
2023-02-04T17:49:50.833Z,100457.47
2023-02-04T17:52:19.718Z,100465.81
2023-02-04T17:54:48.054Z,100460.16
2023-02-04T17:57:19.828Z,100462.78
2023-02-04T17:59:48.933Z,100467.03
2023-02-04T18:02:26.369Z,100459.94
2023-02-04T18:04:58.321Z,100468.47
2023-02-04T18:07:34.216Z,100468.72
2023-02-04T18:10:19.059Z,100462.41
2023-02-04T18:12:47.564Z,100459.63
2023-02-04T18:15:25.617Z,100464.94
2023-02-04T18:17:58.926Z,100474.09
2023-02-04T18:20:27.623Z,100463.38
2023-02-04T18:23:02.022Z,100463.19
2023-02-04T18:25:31.018Z,100478.72
2023-02-04T18:28:02.999Z,100477.09
2023-02-04T18:30:32.493Z,100474.75
2023-02-04T18:33:02.535Z,100478.34
2023-02-04T18:35:43.636Z,100477.16
2023-02-04T18:38:22.749Z,100479.50
2023-02-04T18:40:51.766Z,100473.22
2023-02-04T18:43:26.082Z,100467.75
2023-02-04T18:45:54.865Z,100467.75
2023-02-04T18:49:00.730Z,100469.44
2023-02-04T18:51:41.125Z,100465.81
2023-02-04T18:54:26.904Z,100470.16
2023-02-04T18:57:01.315Z,100482.28
2023-02-04T18:59:29.716Z,100479.72
2023-02-04T19:01:58.125Z,100478.63
2023-02-04T19:04:27.820Z,100456.88
2023-02-04T19:06:57.172Z,100489.69
2023-02-04T19:09:27.541Z,100485.97
2023-02-04T19:11:57.048Z,100488.09
2023-02-04T19:14:34.710Z,100480.47
2023-02-04T19:17:22.191Z,100490.31
2023-02-04T19:19:56.882Z,100490.91
2023-02-04T19:22:32.663Z,100485.06
2023-02-04T19:25:22.060Z,100480.38
2023-02-04T19:27:54.825Z,100467.31
2023-02-04T19:30:46.183Z,100484.72
2023-02-04T19:33:17.778Z,100484.16
2023-02-04T19:35:49.676Z,100473.97
2023-02-04T19:38:46.365Z,100472.47
2023-02-04T19:41:38.059Z,100473.84
2023-02-04T19:44:33.476Z,100475.28
2023-02-04T19:47:24.477Z,100477.09
2023-02-04T19:49:56.291Z,100460.41
2023-02-04T19:52:34.993Z,100480.53
2023-02-04T19:55:25.508Z,100475.47
2023-02-04T19:57:56.060Z,100477.63
2023-02-04T20:00:42.205Z,100488.19
2023-02-04T20:03:28.203Z,100486.03
2023-02-04T20:06:01.858Z,100467.66
2023-02-04T20:08:46.898Z,100485.13
2023-02-04T20:11:35.888Z,100484.94
2023-02-04T20:14:22.180Z,100484.88
2023-02-04T20:16:53.587Z,100486.41
2023-02-04T20:19:26.996Z,100487.25
2023-02-04T20:22:29.038Z,100484.38
2023-02-04T20:25:07.518Z,100488.81
2023-02-04T20:27:38.243Z,100489.53
2023-02-04T20:30:27.948Z,100499.44
2023-02-04T20:32:57.824Z,100506.19
2023-02-04T20:36:15.310Z,100498.34
2023-02-04T20:38:43.657Z,100507.31
2023-02-04T20:41:19.353Z,100506.41
2023-02-04T20:43:52.209Z,100507.84
2023-02-04T20:46:22.827Z,100498.13
2023-02-04T20:48:51.540Z,100518.69
2023-02-04T20:51:23.607Z,100524.44
2023-02-04T20:53:53.589Z,100522.03
2023-02-04T20:56:29.340Z,100520.91
2023-02-04T20:59:11.867Z,100503.81
2023-02-04T21:01:43.985Z,100528.13
2023-02-04T21:04:19.678Z,100524.88
2023-02-04T21:06:53.614Z,100524.25
2023-02-04T21:09:24.707Z,100532.34
2023-02-04T21:11:55.773Z,100526.63
2023-02-04T21:14:28.987Z,100538.59
2023-02-04T21:16:57.827Z,100536.28
2023-02-04T21:19:30.406Z,100544.38
2023-02-04T21:21:58.863Z,100554.00
2023-02-04T21:24:31.378Z,100549.44
2023-02-04T21:27:01.039Z,100550.66
2023-02-04T21:29:29.365Z,100550.34
2023-02-04T21:31:58.087Z,100530.72
2023-02-04T21:34:26.673Z,100551.53
2023-02-04T21:36:57.061Z,100548.75
2023-02-04T21:39:25.412Z,100547.44
2023-02-04T21:42:09.953Z,100545.69
2023-02-04T21:44:40.013Z,100551.16
2023-02-04T21:47:08.392Z,100550.72
2023-02-04T21:49:39.817Z,100545.25
2023-02-04T21:52:09.809Z,100546.00
2023-02-04T21:54:38.108Z,100519.19
2023-02-04T21:57:06.486Z,100527.06
2023-02-04T22:02:38.532Z,100543.44
2023-02-04T22:05:11.233Z,100542.75
2023-02-04T22:07:40.699Z,100543.66
2023-02-04T22:10:11.553Z,100541.56
2023-02-04T22:12:39.988Z,100549.91
2023-02-04T22:15:09.668Z,100540.28
2023-02-04T22:17:39.534Z,100547.91
2023-02-04T22:20:08.808Z,100546.16
2023-02-04T22:22:37.094Z,100533.00
2023-02-04T22:25:05.821Z,100541.56
2023-02-04T22:27:34.207Z,100545.16
2023-02-04T22:30:03.514Z,100543.38
2023-02-04T22:32:32.044Z,100542.81
2023-02-04T22:35:02.319Z,100537.91
2023-02-04T22:37:30.831Z,100522.31
2023-02-04T22:39:59.292Z,100532.78
2023-02-04T22:42:27.580Z,100532.28
2023-02-04T22:44:58.317Z,100543.97
2023-02-04T22:47:26.858Z,100536.94
2023-02-04T22:49:55.151Z,100544.75
2023-02-04T22:52:25.297Z,100550.09
2023-02-04T22:54:54.027Z,100551.38
2023-02-04T22:57:22.892Z,100555.38
2023-02-04T22:59:51.253Z,100555.34
2023-02-04T23:02:19.635Z,100551.00
2023-02-04T23:04:48.176Z,100562.91
2023-02-04T23:07:20.401Z,100559.63
2023-02-04T23:09:50.252Z,100554.41
2023-02-04T23:12:18.927Z,100548.72
2023-02-04T23:14:48.904Z,100548.59
2023-02-04T23:17:18.762Z,100559.25
2023-02-04T23:19:47.093Z,100563.00
2023-02-04T23:22:16.923Z,100571.94
2023-02-04T23:24:45.853Z,100568.34
2023-02-04T23:27:16.401Z,100565.81
2023-02-04T23:29:44.706Z,100570.69
2023-02-04T23:32:13.105Z,100573.34
2023-02-04T23:34:41.528Z,100575.78
2023-02-04T23:37:10.136Z,100573.78
2023-02-04T23:39:38.782Z,100583.34
2023-02-04T23:42:07.660Z,100570.97
2023-02-04T23:44:37.367Z,100559.03
2023-02-04T23:47:06.028Z,100550.72
2023-02-04T23:49:34.351Z,100559.84
2023-02-04T23:52:02.995Z,100559.47
2023-02-04T23:54:31.290Z,100564.88
2023-02-04T23:56:59.565Z,100561.16
2023-02-04T23:59:28.285Z,100545.13
